Wednesday, August 5, 2015, 8:24 AM EDT

KPTW, Pottstown Limerick Airport

Location: Royersford, PA, United States Lat: 40.233
Local Time: 8:24 AM EDT (12:24 GMT) Lon: -75.55
Time Zone: US/Eastern Elev: 291 ft

Show me the last for .
Show Decoded

2015-08-05 07:54 METAR KPTW 051154Z AUTO 19003KT 10SM CLR 18/16 A2997 RMK AO2 SLP142 T01780156
                 10178 20150 53009 =
2015-08-05 06:54 METAR KPTW 051054Z AUTO 00000KT 10SM CLR 16/14 A2996 RMK AO2 SLP139 T01560144 =
2015-08-05 05:54 METAR KPTW 050954Z AUTO 00000KT 10SM CLR 16/14 A2994 RMK AO2 SLP135 T01610144 =
2015-08-05 04:54 METAR KPTW 050854Z AUTO 00000KT 10SM CLR 16/14 A2994 RMK AO2 SLP133 T01560144
                 56005 =
2015-08-05 02:54 METAR KPTW 050654Z AUTO 00000KT 10SM FEW090 17/14 A2994 RMK AO2 SLP135 T01720144
                 =
2015-08-05 01:54 METAR KPTW 050554Z AUTO 00000KT 10SM SCT080 17/15 A2995 RMK AO2 SLP138 T01720150
                 10256 20167 53005 =
2015-08-05 00:54 METAR KPTW 050454Z AUTO 00000KT 10SM BKN085 17/15 A2995 RMK AO2 SLP138 T01720150
                 403000172 =
2015-08-04 23:54 METAR KPTW 050354Z AUTO 00000KT 10SM FEW085 19/14 A2994 RMK AO2 SLP133 T01890144
                 =
2015-08-04 22:54 METAR KPTW 050254Z AUTO 00000KT 10SM CLR 19/14 A2994 RMK AO2 SLP133 T01940139
                 50006 =
2015-08-04 21:54 METAR KPTW 050154Z AUTO 00000KT 10SM CLR 21/14 A2995 RMK AO2 SLP136 T02060144 =
2015-08-04 20:54 METAR KPTW 050054Z AUTO 00000KT 10SM CLR 22/14 A2993 RMK AO2 SLP129 T02220144 =
2015-08-04 19:54 METAR KPTW 042354Z AUTO 33003KT 10SM CLR 26/13 A2992 RMK AO2 SLP127 T02610128
                 10300 20261 53005 =
2015-08-04 18:54 METAR KPTW 042254Z AUTO 33007KT 10SM CLR 28/14 A2990 RMK AO2 SLP120 T02830139 =
2015-08-04 16:54 METAR KPTW 042054Z AUTO 25011G19KT 10SM CLR 30/12 A2990 RMK AO2 SLP121 T03000122
                 55002 =
2015-08-04 15:54 METAR KPTW 041954Z AUTO VRB06KT 10SM CLR 29/15 A2990 RMK AO2 SLP120 T02940150 =
2015-08-04 14:54 METAR KPTW 041854Z AUTO 24009G19KT 210V280 10SM FEW065 30/14 A2990 RMK AO2
                 SLP120 T03000144 =
2015-08-04 13:54 METAR KPTW 041754Z AUTO 25010G21KT 10SM CLR 29/15 A2991 RMK AO2 SLP124 T02940150
                 10294 20206 55003 =
2015-08-04 12:54 METAR KPTW 041654Z AUTO 26007G16KT 10SM FEW044 SCT055 28/19 A2991 RMK AO2 SLP122
                 T02780189 =
2015-08-04 10:54 METAR KPTW 041454Z AUTO VRB04KT 10SM CLR 26/19 A2992 RMK AO2 SLP126 T02610194
                 51007 =
2015-08-04 09:54 METAR KPTW 041354Z AUTO 26005KT 10SM CLR 25/19 A2991 RMK AO2 SLP125 T02500194 =
2015-08-04 08:54 METAR KPTW 041254Z AUTO 23005KT 10SM CLR 22/20 A2991 RMK AO2 SLP124 T02220200 =

Support USWX by starting your Amazon purchase here.